logo
Search for airport 
image banner adimage banner adimage banner ad
image banner ad

CA840 - Lac Kipawa (Csg8)

Located in , Canada

ICAO - , IATA -

Data provided by Airmate  

General information

Coordinates: N46°46'40" W78°58'17"
Elevation is feet MSL.
 
View others Airports in Quebec

Operational data

Special qualification required
Current time UTC:
Current local time:
Weather at : CYYB - North Bay ( 58 km )
METAR: CYYB 040600Z AUTO 00000KT 9SM CLR M32/M36 A3036 RMK SLP338
TAF: TAF CYYB 070140Z 0702/0714 12008KT P6SM SKC FM070800 14012KT P6SM SCT015 BKN160 TEMPO 0708/0714 BKN015 BKN160 BECMG 0712/0714 16012G22KT RMK NXT FCST BY 070800Z
View NOTAMs / SUP AIP / TFR affecting this airport [VIEW]
Communications frequencies: [VIEW]

Runways:

Airport contact information

Address: Canada

Satellite view of CA840